Latest Coastal Weather Observations for Bundaberg

IDQ60701

Issued at 8:02 pm EST Tuesday 19 November 2019 (issued every 10 minutes, with the page automatically refreshed every 10 minutes)

About coastal observations | Map of coastal stations | Coastal observations for QLD | Marine services | Other Formats
Station Details ID: 039128 Name: BUNDABERG AERO Lat: -24.91 Lon: 152.32 Height: 30.82 m
Data from the previous 72 hours. | See also: Recent months at Bundaberg
Date/Time
EST
Wind Sea
Height
m
Swell Vis
km
Cloud Weather Temp
°C
Press
hPa
Rain since
9am
mm
Dir  Spd
kts
Gust
kts
Height
m
Period
s
Dir
19/08:00pm NNE 7 10 - - - - 10 Partly cloudy - 24.4 1013.5 0.0
19/07:30pm NNE 9 12 - - - - 10 - - 24.6 1013.4 0.0
19/07:00pm NNE 11 14 - - - - 10 Partly cloudy - 24.7 1013.1 0.0
19/06:30pm NE 12 15 - - - - 10 Partly cloudy - 25.0 1012.9 0.0
19/06:00pm NE 11 14 - - - - 10 - - 25.5 1012.4 0.0
19/05:30pm NE 13 17 - - - - 10 - - 26.3 1012.0 0.0
19/05:00pm NE 12 16 - - - - 10 - - 26.9 1011.6 0.0
19/04:30pm NE 12 16 - - - - 10 - - 28.0 1011.3 0.0
19/04:00pm NNE 12 15 - - - - 10 - - 28.2 1011.2 0.0
19/03:30pm NNE 13 17 - - - - 10 - - 29.4 1011.3 0.0
19/03:00pm NNE 13 18 - - - - 10 - - 29.2 1011.5 0.0
19/02:30pm NE 14 21 - - - - 10 - - 29.4 1011.6 0.0
19/02:00pm NNE 13 17 - - - - 10 - - 30.9 1011.9 0.0
19/01:30pm ENE 11 18 - - - - 10 - - 30.5 1012.2 0.0
19/01:00pm NE 9 16 - - - - 10 Partly cloudy - 29.8 1012.7 0.0
19/12:30pm NE 10 15 - - - - 10 Partly cloudy - 30.4 1013.0 0.0
19/12:00pm NE 10 15 - - - - 10 Mostly clear - 30.0 1013.4 0.0
19/11:30am E 6 10 - - - - 10 Partly cloudy - 30.4 1013.9 0.0
19/11:00am ENE 6 12 - - - - 10 Partly cloudy - 28.9 1014.5 0.0
19/10:30am NW 4 7 - - - - 10 Cloudy - 27.9 1015.0 0.0
19/10:00am W 4 7 - - - - 10 Cloudy - 27.7 1015.4 0.0
19/09:30am WNW 3 7 - - - - 10 Partly cloudy - 27.2 1015.7 0.0
19/09:00am SW 4 7 - - - - 10 Cloudy - 26.3 1016.0 0.0
19/08:30am SSE 5 9 - - - - 10 Partly cloudy - 25.3 1016.1 0.0
19/08:00am SE 5 9 - - - - 10 Partly cloudy - 24.8 1016.1 0.0
19/07:30am SSE 7 12 - - - - 10 - - 23.8 1016.0 0.0
19/07:00am S 8 10 - - - - 10 - - 22.4 1015.9 0.0
19/06:30am S 7 10 - - - - 10 - - 21.4 1015.7 0.0
19/06:00am S 6 10 - - - - 10 - - 19.8 1015.5 0.0
19/05:30am SSW 7 9 - - - - 10 - - 18.9 1015.3 0.0
19/05:00am SSW 4 5 - - - - 10 - - 18.6 1015.0 0.0
19/04:30am SSW 5 6 - - - - 10 - - 18.6 1014.7 0.0
19/04:00am S 6 8 - - - - 10 - - 18.9 1014.4 0.0
19/03:30am SSW 5 7 - - - - 10 - - 19.0 1014.4 0.0
19/03:00am SSW 6 7 - - - - 10 Mostly clear - 19.4 1014.6 0.0
19/02:30am SW 5 6 - - - - 10 Partly cloudy - 19.6 1014.6 0.0
19/02:00am SSW 5 7 - - - - 10 Partly cloudy - 20.0 1014.6 0.0
19/01:30am S 4 5 - - - - 10 Partly cloudy - 20.1 1014.9 0.0
19/01:00am SSE 4 7 - - - - 10 Partly cloudy - 20.6 1015.2 0.0
19/12:30am SSE 5 7 - - - - 10 Cloudy - 20.6 1015.3 0.0
19/12:00am SSE 5 7 - - - - 10 Cloudy - 20.6 1015.6 0.0
 
Date/Time
EST
Wind Sea
Height
m
Swell Vis
km
Cloud Weather Temp
°C
Press
hPa
Rain since
9am
mm
Dir  Spd
kts
Gust
kts
Height
m
Period
s
Dir
18/11:30pm SSE 6 8 - - - - 10 Partly cloudy - 20.5 1015.8 0.0
18/11:00pm SSE 6 7 - - - - 10 Partly cloudy - 20.8 1016.2 0.0
18/10:30pm SSE 7 10 - - - - 10 Partly cloudy - 20.9 1016.4 0.0
18/10:00pm SSE 6 8 - - - - 10 Cloudy - 21.1 1016.6 0.0
18/09:30pm SSE 6 8 - - - - 10 Partly cloudy - 21.5 1016.5 0.0
18/09:00pm SE 8 11 - - - - 10 Mostly clear - 22.2 1016.4 0.0
18/08:30pm ESE 11 15 - - - - 10 Partly cloudy - 22.5 1016.1 0.0
18/08:00pm ESE 12 16 - - - - 10 - - 22.8 1015.9 0.0
18/07:30pm ESE 13 17 - - - - 10 - - 23.0 1015.8 0.0
18/07:00pm ESE 12 16 - - - - 10 - - 23.3 1015.5 0.0
18/06:30pm ESE 15 20 - - - - 10 - - 23.8 1015.4 0.0
18/06:00pm ESE 16 20 - - - - 10 - - 24.3 1015.0 0.0
18/05:30pm ESE 17 22 - - - - 10 - - 25.2 1014.6 0.0
18/05:00pm ESE 16 21 - - - - 10 - - 26.1 1014.3 0.0
18/04:30pm ESE 17 21 - - - - 10 - - 27.0 1013.9 0.0
18/04:00pm ESE 18 23 - - - - 10 - - 27.1 1013.7 0.0
18/03:30pm ESE 19 24 - - - - 10 - - 27.6 1013.6 0.0
18/03:00pm ESE 18 23 - - - - 10 - - 28.1 1013.7 0.0
18/02:30pm ESE 19 24 - - - - 10 - - 27.8 1013.7 0.0
18/02:00pm E 19 24 - - - - 10 - - 29.2 1013.8 0.0
18/01:30pm ESE 20 27 - - - - 10 - - 28.4 1014.1 0.0
18/01:00pm ESE 18 23 - - - - 10 - - 29.9 1014.1 0.0
18/12:30pm ESE 17 24 - - - - 10 Partly cloudy - 28.6 1014.3 0.0
18/12:00pm ESE 16 23 - - - - 10 Cloudy - 29.0 1014.5 0.0
18/11:30am SE 15 21 - - - - 10 Partly cloudy - 27.6 1015.1 0.0
18/11:00am SE 16 22 - - - - 10 Partly cloudy - 27.6 1015.4 0.0
18/10:30am SE 15 20 - - - - 10 Partly cloudy - 29.0 1015.6 0.0
18/10:00am SE 16 22 - - - - 10 Partly cloudy - 27.6 1015.8 0.0
18/09:30am SE 17 22 - - - - 10 Partly cloudy - 26.8 1015.9 0.0
18/09:00am SE 15 21 - - - - 10 Cloudy - 26.6 1016.0 0.0
18/08:30am SE 17 21 - - - - 10 Partly cloudy - 26.3 1016.0 0.0
18/08:00am SSE 17 23 - - - - 10 Partly cloudy - 25.1 1016.0 0.0
18/07:30am SSE 15 19 - - - - 10 Partly cloudy - 23.7 1015.8 0.0
18/07:00am SSE 15 21 - - - - 10 Cloudy - 23.8 1015.5 0.0
18/06:30am SSE 14 19 - - - - 10 Partly cloudy - 23.1 1015.2 0.0
18/06:00am SSE 10 15 - - - - 10 Cloudy - 22.5 1014.8 0.0
18/05:38am SSE 9 14 - - - - 10 Partly cloudy - 22.3 1014.5 0.0
18/05:30am SSE 9 15 - - - - 10 Partly cloudy - 22.2 1014.4 0.0
18/05:07am SSE 5 7 - - - - 10 Partly cloudy - 22.3 1014.0 0.0
18/05:00am SSE 5 7 - - - - 10 Partly cloudy - 22.4 1013.9 0.0
18/04:30am SE 4 5 - - - - 10 - - 22.6 1013.5 0.0
18/04:00am S 7 11 - - - - 10 Partly cloudy - 23.0 1013.3 0.0
18/03:30am S 5 5 - - - - 10 Partly cloudy - 23.0 1012.9 0.0
18/03:00am NW 5 6 - - - - 10 Mostly clear - 23.1 1012.6 0.0
18/02:30am NNW 7 10 - - - - 10 - - 23.6 1012.5 0.0
18/02:00am NNW 9 11 - - - - 10 - - 23.9 1012.4 0.0
18/01:30am N 11 13 - - - - 10 Partly cloudy - 24.3 1012.4 0.0
18/01:00am N 10 13 - - - - 10 Partly cloudy - 24.7 1012.7 0.0
18/12:30am N 10 13 - - - - 10 Cloudy - 24.7 1012.9 0.0
18/12:00am N 9 13 - - - - 10 Partly cloudy - 24.6 1013.1 0.0
 
Date/Time
EST
Wind Sea
Height
m
Swell Vis
km
Cloud Weather Temp
°C
Press
hPa
Rain since
9am
mm
Dir  Spd
kts
Gust
kts
Height
m
Period
s
Dir
17/11:30pm N 10 14 - - - - 10 - - 24.6 1013.0 0.0
17/11:00pm N 12 15 - - - - 10 Partly cloudy - 24.7 1013.0 0.0
17/10:30pm NNE 11 13 - - - - 10 Cloudy - 25.2 1013.1 0.0
17/10:00pm NNE 10 13 - - - - 10 Partly cloudy - 25.3 1013.3 0.0
17/09:54pm NNE 10 12 - - - - 10 Cloudy - 25.3 1013.1 0.0
17/09:30pm NNE 5 10 - - - - 10 Cloudy - 25.1 1013.1 0.0
17/09:00pm NNW 9 16 - - - - 10 Partly cloudy - 24.7 1012.0 0.0
17/08:30pm NNW 17 24 - - - - 10 Partly cloudy - 24.7 1010.7 0.0
17/08:07pm NNW 19 25 - - - - 10 Partly cloudy - 24.8 1010.6 0.0
17/08:00pm NNW 19 25 - - - - 10 Partly cloudy - 24.8 1010.6 0.0
17/07:30pm NNW 20 26 - - - - 10 Partly cloudy - 25.0 1010.6 0.0
17/07:00pm N 21 26 - - - - 10 Partly cloudy - 25.1 1010.4 0.0
17/06:30pm N 20 28 - - - - 10 Partly cloudy - 25.3 1010.2 0.0
17/06:00pm N 21 29 - - - - 10 Partly cloudy - 25.5 1009.5 0.0
17/05:30pm N 24 32 - - - - 10 Partly cloudy - 25.8 1009.2 0.0
17/05:00pm N 22 29 - - - - 10 Partly cloudy - 26.5 1009.1 0.0
17/04:30pm N 25 33 - - - - 10 Partly cloudy - 26.6 1008.6 0.0
17/04:00pm N 25 32 - - - - 10 Partly cloudy - 27.2 1008.0 0.0
17/03:30pm N 26 33 - - - - 10 - - 27.5 1007.9 0.0
17/03:00pm N 23 29 - - - - 10 - - 28.7 1008.4 0.0
17/02:30pm N 23 30 - - - - 10 - - 28.9 1009.0 0.0
17/02:00pm N 21 29 - - - - 10 - - 29.0 1009.6 0.0
17/01:30pm N 21 28 - - - - 10 - - 28.9 1010.0 0.0
17/01:00pm N 21 26 - - - - 10 - - 29.6 1010.7 0.0
17/12:30pm N 19 25 - - - - 10 - - 29.8 1011.2 0.0
17/12:00pm N 19 25 - - - - 10 - - 29.4 1011.7 0.0
17/11:30am N 17 21 - - - - 10 - - 30.7 1012.3 0.0
17/11:00am N 17 22 - - - - 10 Partly cloudy - 29.4 1012.9 0.0
17/10:30am N 16 21 - - - - 10 Partly cloudy - 29.0 1013.2 0.0
17/10:00am N 13 18 - - - - 10 Partly cloudy - 28.9 1013.7 0.0
17/09:30am N 15 19 - - - - 10 Partly cloudy - 28.8 1013.7 0.0
17/09:00am N 11 15 - - - - 10 - - 28.9 1014.0 0.8
17/08:30am NW 12 15 - - - - 10 - - 28.3 1014.2 0.8
17/08:00am NNW 13 16 - - - - 10 Partly cloudy - 27.3 1014.2 0.8
17/07:30am NW 14 19 - - - - 10 Partly cloudy - 26.4 1014.2 0.8
17/07:00am NNW 15 19 - - - - 10 Partly cloudy - 26.0 1014.0 0.8
17/06:30am NNW 9 12 - - - - 10 Partly cloudy - 24.6 1013.7 0.8
17/06:00am NNW 7 9 - - - - 10 - - 23.6 1013.3 0.8
17/05:30am NW 6 8 - - - - 10 - - 22.7 1013.3 0.8
17/05:00am NNW 8 10 - - - - 10 - - 22.7 1013.1 0.8
17/04:30am NW 11 15 - - - - 10 - - 22.9 1012.9 0.8
17/04:00am NNW 13 16 - - - - 10 - - 22.9 1012.8 0.8
17/03:30am NNW 13 16 - - - - 10 Partly cloudy - 22.8 1012.7 0.8
17/03:00am N 13 17 - - - - 10 - - 22.8 1012.7 0.8
17/02:30am NNW 11 14 - - - - 10 - - 22.7 1013.2 0.8
17/02:00am NNW 11 13 - - - - 10 Partly cloudy - 22.8 1013.5 0.8
17/01:30am NNW 7 10 - - - - 10 Partly cloudy - 22.7 1013.7 0.8
17/01:20am NW 6 8 - - - - 10 Partly cloudy - 22.7 1013.9 0.8
17/01:02am NNW 2 6 - - - - 10 Partly cloudy - 22.9 1014.1 0.8
17/01:00am NNW 1 5 - - - - 10 Partly cloudy - 23.0 1014.1 0.8
17/12:30am N 5 6 - - - - 10 - - 23.0 1013.9 0.8
17/12:00am WNW 8 12 - - - - 10 Cloudy Rain 23.0 1013.7 0.8
 
Date/Time
EST
Wind Sea
Height
m
Swell Vis
km
Cloud Weather Temp
°C
Press
hPa
Rain since
9am
mm
Dir  Spd
kts
Gust
kts
Height
m
Period
s
Dir
16/11:30pm NW 8 12 - - - - 10 Partly cloudy - 23.6 1013.7 0.8
16/11:00pm N 19 30 - - - - 7 Partly cloudy - 22.3 1013.3 0.6
16/10:57pm N 16 27 - - - - 10 Partly cloudy - 22.9 1013.9 0.4
16/10:30pm N 10 13 - - - - 10 Partly cloudy - 24.4 1015.8 0.0
16/10:00pm N 11 13 - - - - 10 Partly cloudy - 24.5 1015.5 0.0
16/09:30pm N 10 12 - - - - 10 Partly cloudy - 24.5 1015.4 0.0
16/09:00pm W 8 11 - - - - 10 Cloudy - 24.2 1015.9 0.0
16/08:30pm WNW 11 14 - - - - 10 Partly cloudy - 24.3 1015.6 0.0

Other formats

Comma delimited format used in spreadsheet applications
http://www.bom.gov.au/fwo/IDQ60701/IDQ60701.94387.axf

JavaScript Object Notation format (JSON) in row-major order
http://www.bom.gov.au/fwo/IDQ60701/IDQ60701.94387.json

Data quality

Most of these data are generated automatically and are frequently updated. Quality checks on data are not normally performed. It is possible for incorrect values to appear. Refer to information at About Latest Weather Observations and please check the disclaimer before using these data.